sensor_id;sensor_type;location;lat;lon;timestamp;pressure;altitude;pressure_sealevel;temperature;humidity
40794;BME280;26502;51.886;15.604;2023-03-25T00:02:25;99608.42;;;6.99;76.52
40794;BME280;26502;51.886;15.604;2023-03-25T00:07:33;99587.34;;;7.16;76.77
40794;BME280;26502;51.886;15.604;2023-03-25T00:12:41;99577.55;;;7.23;76.77
40794;BME280;26502;51.886;15.604;2023-03-25T00:17:47;99570.13;;;7.38;77.15
40794;BME280;26502;51.886;15.604;2023-03-25T00:22:54;99572.76;;;7.48;77.29
40794;BME280;26502;51.886;15.604;2023-03-25T00:28:01;99564.67;;;7.56;77.32
40794;BME280;26502;51.886;15.604;2023-03-25T00:33:08;99565.23;;;7.60;77.40
40794;BME280;26502;51.886;15.604;2023-03-25T00:38:17;99578.00;;;7.63;77.47
40794;BME280;26502;51.886;15.604;2023-03-25T00:43:23;99583.02;;;7.66;77.54
40794;BME280;26502;51.886;15.604;2023-03-25T00:48:29;99574.41;;;7.65;77.81
40794;BME280;26502;51.886;15.604;2023-03-25T00:53:36;99572.36;;;7.63;77.92
40794;BME280;26502;51.886;15.604;2023-03-25T00:58:42;99577.63;;;7.54;77.82
40794;BME280;26502;51.886;15.604;2023-03-25T01:03:50;99582.90;;;7.46;77.91
40794;BME280;26502;51.886;15.604;2023-03-25T01:09:03;99595.75;;;7.43;77.90
40794;BME280;26502;51.886;15.604;2023-03-25T01:14:13;99585.19;;;7.42;77.96
40794;BME280;26502;51.886;15.604;2023-03-25T01:19:20;99571.23;;;7.46;78.01
40794;BME280;26502;51.886;15.604;2023-03-25T01:24:28;99568.21;;;7.51;77.89
40794;BME280;26502;51.886;15.604;2023-03-25T01:29:35;99554.77;;;7.56;77.86
40794;BME280;26502;51.886;15.604;2023-03-25T01:34:42;99535.16;;;7.62;77.88
40794;BME280;26502;51.886;15.604;2023-03-25T01:39:48;99524.33;;;7.58;77.52
40794;BME280;26502;51.886;15.604;2023-03-25T01:45:13;99511.61;;;7.58;77.36
40794;BME280;26502;51.886;15.604;2023-03-25T01:50:20;99515.23;;;7.46;77.15
40794;BME280;26502;51.886;15.604;2023-03-25T01:55:27;99509.03;;;7.28;77.11
40794;BME280;26502;51.886;15.604;2023-03-25T02:00:39;99506.08;;;7.17;77.02
40794;BME280;26502;51.886;15.604;2023-03-25T02:05:52;99514.75;;;6.87;77.04
40794;BME280;26502;51.886;15.604;2023-03-25T02:11:00;99505.64;;;6.80;77.17
40794;BME280;26502;51.886;15.604;2023-03-25T02:16:21;99497.59;;;6.79;77.31
40794;BME280;26502;51.886;15.604;2023-03-25T02:22:01;99486.22;;;6.71;77.03
40794;BME280;26502;51.886;15.604;2023-03-25T02:27:30;99480.94;;;6.66;76.94
40794;BME280;26502;51.886;15.604;2023-03-25T02:38:25;99480.23;;;6.55;76.62
40794;BME280;26502;51.886;15.604;2023-03-25T02:43:39;99486.82;;;6.28;76.59
40794;BME280;26502;51.886;15.604;2023-03-25T02:48:53;99486.89;;;6.31;76.79
40794;BME280;26502;51.886;15.604;2023-03-25T02:54:05;99486.98;;;6.28;76.55
40794;BME280;26502;51.886;15.604;2023-03-25T02:59:16;99479.49;;;6.10;76.34
40794;BME280;26502;51.886;15.604;2023-03-25T03:04:24;99480.79;;;6.03;76.50
40794;BME280;26502;51.886;15.604;2023-03-25T03:09:39;99475.31;;;5.97;76.49
40794;BME280;26502;51.886;15.604;2023-03-25T03:14:59;99469.64;;;6.10;76.48
40794;BME280;26502;51.886;15.604;2023-03-25T03:20:15;99475.69;;;6.02;76.12
40794;BME280;26502;51.886;15.604;2023-03-25T03:25:27;99478.17;;;5.79;76.28
40794;BME280;26502;51.886;15.604;2023-03-25T03:30:41;99469.55;;;5.84;76.29
40794;BME280;26502;51.886;15.604;2023-03-25T03:35:53;99470.30;;;5.72;75.97
40794;BME280;26502;51.886;15.604;2023-03-25T03:41:05;99469.59;;;5.66;76.28
40794;BME280;26502;51.886;15.604;2023-03-25T03:46:17;99462.70;;;5.78;76.24
40794;BME280;26502;51.886;15.604;2023-03-25T03:51:28;99464.55;;;5.81;76.02
40794;BME280;26502;51.886;15.604;2023-03-25T03:56:40;99468.04;;;5.71;75.79
40794;BME280;26502;51.886;15.604;2023-03-25T04:01:53;99469.86;;;5.70;75.77
40794;BME280;26502;51.886;15.604;2023-03-25T04:07:04;99479.52;;;5.53;75.54
40794;BME280;26502;51.886;15.604;2023-03-25T04:12:17;99486.33;;;5.32;75.75
40794;BME280;26502;51.886;15.604;2023-03-25T04:17:27;99484.11;;;5.29;76.13
40794;BME280;26502;51.886;15.604;2023-03-25T04:22:37;99488.31;;;5.30;76.22
40794;BME280;26502;51.886;15.604;2023-03-25T04:27:42;99496.13;;;5.40;76.19
40794;BME280;26502;51.886;15.604;2023-03-25T04:32:52;99502.34;;;5.50;76.15
40794;BME280;26502;51.886;15.604;2023-03-25T04:38:00;99503.77;;;5.61;76.19
40794;BME280;26502;51.886;15.604;2023-03-25T04:43:07;99507.02;;;5.63;76.06
40794;BME280;26502;51.886;15.604;2023-03-25T04:48:21;99513.92;;;5.68;76.12
40794;BME280;26502;51.886;15.604;2023-03-25T04:53:31;99517.24;;;5.75;76.24
40794;BME280;26502;51.886;15.604;2023-03-25T04:58:37;99518.17;;;5.85;76.35
40794;BME280;26502;51.886;15.604;2023-03-25T05:03:44;99518.70;;;5.90;76.27
40794;BME280;26502;51.886;15.604;2023-03-25T05:08:53;99513.11;;;5.94;76.35
40794;BME280;26502;51.886;15.604;2023-03-25T05:14:00;99507.40;;;6.03;76.55
40794;BME280;26502;51.886;15.604;2023-03-25T05:19:07;99506.42;;;6.11;76.51
40794;BME280;26502;51.886;15.604;2023-03-25T05:24:13;99501.40;;;6.14;76.54
40794;BME280;26502;51.886;15.604;2023-03-25T05:29:19;99495.00;;;6.21;76.69
40794;BME280;26502;51.886;15.604;2023-03-25T05:34:26;99497.77;;;6.33;76.65
40794;BME280;26502;51.886;15.604;2023-03-25T05:39:36;99498.11;;;6.43;76.63
40794;BME280;26502;51.886;15.604;2023-03-25T05:44:42;99499.27;;;6.51;76.64
40794;BME280;26502;51.886;15.604;2023-03-25T05:49:55;99492.95;;;6.60;76.89
40794;BME280;26502;51.886;15.604;2023-03-25T05:55:02;99487.21;;;6.68;76.76
40794;BME280;26502;51.886;15.604;2023-03-25T06:00:10;99496.08;;;6.77;76.93
40794;BME280;26502;51.886;15.604;2023-03-25T06:05:17;99502.10;;;6.86;77.02
40794;BME280;26502;51.886;15.604;2023-03-25T06:10:26;99507.67;;;6.98;77.09
40794;BME280;26502;51.886;15.604;2023-03-25T06:15:33;99507.80;;;7.04;77.26
40794;BME280;26502;51.886;15.604;2023-03-25T06:20:43;99507.02;;;7.16;77.38
40794;BME280;26502;51.886;15.604;2023-03-25T06:25:50;99506.27;;;7.27;77.39
40794;BME280;26502;51.886;15.604;2023-03-25T06:30:57;99509.28;;;7.40;77.47
40794;BME280;26502;51.886;15.604;2023-03-25T06:36:03;99506.60;;;7.64;77.74
40794;BME280;26502;51.886;15.604;2023-03-25T06:41:10;99504.11;;;7.87;77.84
40794;BME280;26502;51.886;15.604;2023-03-25T06:46:18;99508.87;;;8.09;77.92
40794;BME280;26502;51.886;15.604;2023-03-25T06:51:46;99515.67;;;8.29;77.96
40794;BME280;26502;51.886;15.604;2023-03-25T06:56:52;99516.38;;;8.41;78.15
40794;BME280;26502;51.886;15.604;2023-03-25T07:02:00;99515.84;;;8.51;78.20
40794;BME280;26502;51.886;15.604;2023-03-25T07:07:08;99507.94;;;8.74;78.30
40794;BME280;26502;51.886;15.604;2023-03-25T07:12:14;99506.20;;;8.97;78.31
40794;BME280;26502;51.886;15.604;2023-03-25T07:17:21;99503.94;;;9.12;78.08
40794;BME280;26502;51.886;15.604;2023-03-25T07:22:28;99498.98;;;9.16;77.71
40794;BME280;26502;51.886;15.604;2023-03-25T07:27:34;99492.20;;;9.25;77.81
40794;BME280;26502;51.886;15.604;2023-03-25T07:32:45;99492.52;;;9.34;77.92
40794;BME280;26502;51.886;15.604;2023-03-25T07:37:51;99497.33;;;9.48;77.89
40794;BME280;26502;51.886;15.604;2023-03-25T07:42:58;99494.20;;;9.58;77.67
40794;BME280;26502;51.886;15.604;2023-03-25T07:48:14;99500.14;;;9.68;77.57
40794;BME280;26502;51.886;15.604;2023-03-25T07:53:21;99503.59;;;9.81;77.31
40794;BME280;26502;51.886;15.604;2023-03-25T07:58:27;99508.88;;;9.93;77.33
40794;BME280;26502;51.886;15.604;2023-03-25T08:03:33;99506.57;;;10.04;77.03
40794;BME280;26502;51.886;15.604;2023-03-25T08:08:42;99506.30;;;10.13;76.42
40794;BME280;26502;51.886;15.604;2023-03-25T08:13:49;99505.55;;;10.14;76.18
40794;BME280;26502;51.886;15.604;2023-03-25T08:18:55;99504.23;;;10.23;76.05
40794;BME280;26502;51.886;15.604;2023-03-25T08:24:01;99509.95;;;10.40;75.75
40794;BME280;26502;51.886;15.604;2023-03-25T08:29:08;99503.33;;;10.62;75.08
40794;BME280;26502;51.886;15.604;2023-03-25T08:34:15;99510.30;;;10.85;73.51
40794;BME280;26502;51.886;15.604;2023-03-25T08:39:21;99516.75;;;10.81;72.60
40794;BME280;26502;51.886;15.604;2023-03-25T08:44:33;99517.46;;;10.71;71.98
40794;BME280;26502;51.886;15.604;2023-03-25T08:49:40;99519.43;;;10.63;71.33
40794;BME280;26502;51.886;15.604;2023-03-25T08:54:46;99512.77;;;10.58;70.84
40794;BME280;26502;51.886;15.604;2023-03-25T08:59:52;99508.25;;;10.60;70.70
40794;BME280;26502;51.886;15.604;2023-03-25T09:04:58;99510.18;;;10.74;71.04
40794;BME280;26502;51.886;15.604;2023-03-25T09:10:06;99512.76;;;10.83;70.13
40794;BME280;26502;51.886;15.604;2023-03-25T09:15:12;99518.60;;;10.79;68.61
40794;BME280;26502;51.886;15.604;2023-03-25T09:20:19;99521.79;;;10.76;68.78
40794;BME280;26502;51.886;15.604;2023-03-25T09:25:25;99515.66;;;10.81;69.22
40794;BME280;26502;51.886;15.604;2023-03-25T09:30:32;99538.55;;;10.86;68.34
40794;BME280;26502;51.886;15.604;2023-03-25T09:35:39;99562.42;;;10.44;67.74
40794;BME280;26502;51.886;15.604;2023-03-25T09:40:46;99560.59;;;9.72;68.81
40794;BME280;26502;51.886;15.604;2023-03-25T09:45:52;99565.86;;;9.14;70.34
40794;BME280;26502;51.886;15.604;2023-03-25T09:51:02;99569.26;;;8.97;71.56
40794;BME280;26502;51.886;15.604;2023-03-25T09:56:13;99565.06;;;9.00;72.42
40794;BME280;26502;51.886;15.604;2023-03-25T10:01:24;99555.95;;;9.34;73.44
40794;BME280;26502;51.886;15.604;2023-03-25T10:06:38;99551.27;;;9.82;74.40
40794;BME280;26502;51.886;15.604;2023-03-25T10:11:56;99550.39;;;9.85;75.16
40794;BME280;26502;51.886;15.604;2023-03-25T10:17:15;99546.14;;;9.92;75.70
40794;BME280;26502;51.886;15.604;2023-03-25T10:22:27;99539.16;;;10.12;75.98
40794;BME280;26502;51.886;15.604;2023-03-25T10:27:39;99529.88;;;10.42;75.61
40794;BME280;26502;51.886;15.604;2023-03-25T10:32:50;99514.23;;;10.88;74.41
40794;BME280;26502;51.886;15.604;2023-03-25T10:37:59;99506.66;;;11.07;73.20
40794;BME280;26502;51.886;15.604;2023-03-25T10:43:17;99505.13;;;11.12;72.25
40794;BME280;26502;51.886;15.604;2023-03-25T10:48:28;99506.48;;;11.14;71.16
40794;BME280;26502;51.886;15.604;2023-03-25T10:53:34;99504.98;;;11.29;69.93
40794;BME280;26502;51.886;15.604;2023-03-25T10:58:42;99492.23;;;11.35;66.45
40794;BME280;26502;51.886;15.604;2023-03-25T11:03:51;99486.16;;;11.74;66.22
40794;BME280;26502;51.886;15.604;2023-03-25T11:09:16;99481.16;;;12.15;64.81
40794;BME280;26502;51.886;15.604;2023-03-25T11:14:27;99476.84;;;12.07;61.73
40794;BME280;26502;51.886;15.604;2023-03-25T11:19:38;99488.72;;;11.95;60.32
40794;BME280;26502;51.886;15.604;2023-03-25T11:24:49;99478.00;;;12.36;59.34
40794;BME280;26502;51.886;15.604;2023-03-25T11:30:02;99471.02;;;12.61;57.45
40794;BME280;26502;51.886;15.604;2023-03-25T11:35:16;99473.92;;;12.32;57.70
40794;BME280;26502;51.886;15.604;2023-03-25T11:40:23;99474.95;;;11.96;56.59
40794;BME280;26502;51.886;15.604;2023-03-25T11:45:34;99483.02;;;11.85;58.09
40794;BME280;26502;51.886;15.604;2023-03-25T11:50:47;99487.29;;;11.85;57.78
40794;BME280;26502;51.886;15.604;2023-03-25T11:55:58;99483.73;;;12.20;58.65
40794;BME280;26502;51.886;15.604;2023-03-25T12:01:09;99474.51;;;12.56;57.90
40794;BME280;26502;51.886;15.604;2023-03-25T12:06:25;99474.26;;;12.89;57.58
40794;BME280;26502;51.886;15.604;2023-03-25T12:11:38;99458.84;;;12.91;57.20
40794;BME280;26502;51.886;15.604;2023-03-25T12:16:50;99452.55;;;13.01;56.69
40794;BME280;26502;51.886;15.604;2023-03-25T12:22:15;99452.23;;;12.71;56.83
40794;BME280;26502;51.886;15.604;2023-03-25T12:27:35;99437.96;;;12.44;57.27
40794;BME280;26502;51.886;15.604;2023-03-25T12:32:48;99461.22;;;11.97;58.57
40794;BME280;26502;51.886;15.604;2023-03-25T12:38:17;99464.29;;;11.48;61.02
40794;BME280;26502;51.886;15.604;2023-03-25T12:43:35;99452.58;;;11.38;62.32
40794;BME280;26502;51.886;15.604;2023-03-25T12:48:57;99441.27;;;11.43;63.96
40794;BME280;26502;51.886;15.604;2023-03-25T12:54:18;99440.73;;;11.37;64.74
40794;BME280;26502;51.886;15.604;2023-03-25T12:59:49;99433.27;;;12.18;63.59
40794;BME280;26502;51.886;15.604;2023-03-25T13:05:13;99426.02;;;12.77;60.73
40794;BME280;26502;51.886;15.604;2023-03-25T13:10:23;99421.79;;;12.94;58.54
40794;BME280;26502;51.886;15.604;2023-03-25T13:15:36;99414.05;;;12.63;57.14
40794;BME280;26502;51.886;15.604;2023-03-25T13:20:46;99429.98;;;11.95;54.54
40794;BME280;26502;51.886;15.604;2023-03-25T13:25:58;99430.23;;;11.69;55.48
40794;BME280;26502;51.886;15.604;2023-03-25T13:31:07;99426.56;;;12.05;54.46
40794;BME280;26502;51.886;15.604;2023-03-25T13:36:18;99417.82;;;12.15;53.92
40794;BME280;26502;51.886;15.604;2023-03-25T13:41:31;99407.55;;;12.08;53.55
40794;BME280;26502;51.886;15.604;2023-03-25T13:46:41;99426.94;;;11.77;54.73
40794;BME280;26502;51.886;15.604;2023-03-25T13:51:48;99434.59;;;11.13;56.42
40794;BME280;26502;51.886;15.604;2023-03-25T14:02:37;99420.45;;;10.38;59.32
40794;BME280;26502;51.886;15.604;2023-03-25T14:08:01;99418.00;;;10.68;60.12
40794;BME280;26502;51.886;15.604;2023-03-25T14:13:14;99412.92;;;11.41;60.23
40794;BME280;26502;51.886;15.604;2023-03-25T14:18:22;99408.91;;;12.39;60.02
40794;BME280;26502;51.886;15.604;2023-03-25T14:23:31;99406.91;;;13.09;57.86
40794;BME280;26502;51.886;15.604;2023-03-25T14:28:40;99407.79;;;13.07;55.68
40794;BME280;26502;51.886;15.604;2023-03-25T14:34:21;99402.00;;;12.94;55.55
40794;BME280;26502;51.886;15.604;2023-03-25T14:39:40;99410.83;;;13.12;55.85
40794;BME280;26502;51.886;15.604;2023-03-25T14:44:50;99410.84;;;13.26;54.61
40794;BME280;26502;51.886;15.604;2023-03-25T14:50:28;99408.00;;;13.15;53.30
40794;BME280;26502;51.886;15.604;2023-03-25T14:55:39;99408.98;;;13.10;53.93
40794;BME280;26502;51.886;15.604;2023-03-25T15:00:53;99408.40;;;13.14;52.78
40794;BME280;26502;51.886;15.604;2023-03-25T15:06:04;99409.45;;;12.92;53.31
40794;BME280;26502;51.886;15.604;2023-03-25T15:11:15;99393.60;;;12.74;52.69
40794;BME280;26502;51.886;15.604;2023-03-25T15:16:33;99397.66;;;12.46;53.16
40794;BME280;26502;51.886;15.604;2023-03-25T15:22:18;99400.95;;;12.30;53.74
40794;BME280;26502;51.886;15.604;2023-03-25T15:32:56;99389.33;;;12.27;54.13
40794;BME280;26502;51.886;15.604;2023-03-25T15:38:24;99387.04;;;12.33;54.30
40794;BME280;26502;51.886;15.604;2023-03-25T15:43:53;99385.16;;;12.69;54.92
40794;BME280;26502;51.886;15.604;2023-03-25T15:54:44;99380.24;;;12.77;54.51
40794;BME280;26502;51.886;15.604;2023-03-25T15:59:56;99379.84;;;12.40;54.62
40794;BME280;26502;51.886;15.604;2023-03-25T16:05:07;99380.00;;;12.20;55.07
40794;BME280;26502;51.886;15.604;2023-03-25T16:10:16;99382.11;;;12.08;55.45
40794;BME280;26502;51.886;15.604;2023-03-25T16:15:26;99375.19;;;11.98;56.13
40794;BME280;26502;51.886;15.604;2023-03-25T16:20:35;99379.06;;;11.87;56.58
40794;BME280;26502;51.886;15.604;2023-03-25T16:25:42;99402.02;;;11.68;57.30
40794;BME280;26502;51.886;15.604;2023-03-25T16:30:52;99406.88;;;10.83;59.18
40794;BME280;26502;51.886;15.604;2023-03-25T16:36:00;99412.64;;;9.91;60.87
40794;BME280;26502;51.886;15.604;2023-03-25T16:41:12;99422.52;;;9.38;61.85
40794;BME280;26502;51.886;15.604;2023-03-25T16:46:21;99425.86;;;9.20;62.20
40794;BME280;26502;51.886;15.604;2023-03-25T16:51:29;99449.12;;;8.95;63.33
40794;BME280;26502;51.886;15.604;2023-03-25T16:56:40;99454.95;;;8.83;64.81
40794;BME280;26502;51.886;15.604;2023-03-25T17:01:53;99457.48;;;8.82;67.17
40794;BME280;26502;51.886;15.604;2023-03-25T17:07:03;99461.16;;;8.67;67.49
40794;BME280;26502;51.886;15.604;2023-03-25T17:12:18;99460.99;;;8.63;67.65
40794;BME280;26502;51.886;15.604;2023-03-25T17:17:34;99454.44;;;8.55;68.79
40794;BME280;26502;51.886;15.604;2023-03-25T17:22:45;99452.40;;;8.44;68.55
40794;BME280;26502;51.886;15.604;2023-03-25T17:28:18;99459.22;;;8.47;68.39
40794;BME280;26502;51.886;15.604;2023-03-25T17:33:34;99466.02;;;8.39;68.39
40794;BME280;26502;51.886;15.604;2023-03-25T17:38:45;99462.67;;;8.39;68.74
40794;BME280;26502;51.886;15.604;2023-03-25T17:43:53;99478.90;;;8.37;68.60
40794;BME280;26502;51.886;15.604;2023-03-25T17:49:00;99485.58;;;8.33;68.75
40794;BME280;26502;51.886;15.604;2023-03-25T17:54:07;99492.28;;;8.25;68.90
40794;BME280;26502;51.886;15.604;2023-03-25T17:59:17;99512.96;;;8.13;68.89
40794;BME280;26502;51.886;15.604;2023-03-25T18:04:23;99522.96;;;7.97;69.18
40794;BME280;26502;51.886;15.604;2023-03-25T18:09:30;99530.70;;;7.85;69.73
40794;BME280;26502;51.886;15.604;2023-03-25T18:14:36;99531.23;;;7.76;70.28
40794;BME280;26502;51.886;15.604;2023-03-25T18:19:42;99530.20;;;7.66;71.08
40794;BME280;26502;51.886;15.604;2023-03-25T18:24:49;99533.92;;;7.56;71.73
40794;BME280;26502;51.886;15.604;2023-03-25T18:29:55;99529.88;;;7.47;72.04
40794;BME280;26502;51.886;15.604;2023-03-25T18:35:01;99530.01;;;7.43;72.11
40794;BME280;26502;51.886;15.604;2023-03-25T18:40:16;99531.73;;;7.40;72.14
40794;BME280;26502;51.886;15.604;2023-03-25T18:45:23;99533.89;;;7.38;72.24
40794;BME280;26502;51.886;15.604;2023-03-25T18:50:31;99527.32;;;7.35;72.20
40794;BME280;26502;51.886;15.604;2023-03-25T18:55:38;99528.04;;;7.25;72.38
40794;BME280;26502;51.886;15.604;2023-03-25T19:00:47;99526.97;;;7.20;72.53
40794;BME280;26502;51.886;15.604;2023-03-25T19:05:54;99532.83;;;7.19;72.44
40794;BME280;26502;51.886;15.604;2023-03-25T19:11:02;99532.18;;;7.03;72.83
40794;BME280;26502;51.886;15.604;2023-03-25T19:16:08;99534.55;;;7.01;73.11
40794;BME280;26502;51.886;15.604;2023-03-25T19:21:17;99538.20;;;6.98;73.08
40794;BME280;26502;51.886;15.604;2023-03-25T19:26:24;99541.66;;;6.95;73.08
40794;BME280;26502;51.886;15.604;2023-03-25T19:31:30;99544.70;;;6.94;73.35
40794;BME280;26502;51.886;15.604;2023-03-25T19:36:36;99540.19;;;6.97;73.39
40794;BME280;26502;51.886;15.604;2023-03-25T19:41:43;99536.44;;;6.98;73.33
40794;BME280;26502;51.886;15.604;2023-03-25T19:46:50;99531.89;;;7.01;73.37
40794;BME280;26502;51.886;15.604;2023-03-25T19:51:56;99531.86;;;7.08;73.49
40794;BME280;26502;51.886;15.604;2023-03-25T19:57:02;99532.38;;;7.08;73.36
40794;BME280;26502;51.886;15.604;2023-03-25T20:02:10;99528.98;;;7.04;73.45
40794;BME280;26502;51.886;15.604;2023-03-25T20:07:16;99519.41;;;7.05;73.70
40794;BME280;26502;51.886;15.604;2023-03-25T20:12:24;99512.38;;;7.04;73.64
40794;BME280;26502;51.886;15.604;2023-03-25T20:17:30;99504.83;;;7.08;73.75
40794;BME280;26502;51.886;15.604;2023-03-25T20:22:37;99503.40;;;7.13;73.94
40794;BME280;26502;51.886;15.604;2023-03-25T20:27:44;99500.19;;;7.14;73.98
40794;BME280;26502;51.886;15.604;2023-03-25T20:32:50;99499.77;;;7.16;73.98
40794;BME280;26502;51.886;15.604;2023-03-25T20:37:56;99493.06;;;7.16;73.89
40794;BME280;26502;51.886;15.604;2023-03-25T20:43:02;99491.17;;;7.15;73.79
40794;BME280;26502;51.886;15.604;2023-03-25T20:48:09;99486.88;;;7.16;74.00
40794;BME280;26502;51.886;15.604;2023-03-25T20:53:15;99479.04;;;7.18;73.85
40794;BME280;26502;51.886;15.604;2023-03-25T20:58:21;99478.27;;;7.19;73.98
40794;BME280;26502;51.886;15.604;2023-03-25T21:03:28;99473.98;;;7.21;73.91
40794;BME280;26502;51.886;15.604;2023-03-25T21:08:34;99475.55;;;7.22;73.81
40794;BME280;26502;51.886;15.604;2023-03-25T21:13:40;99479.52;;;7.19;73.85
40794;BME280;26502;51.886;15.604;2023-03-25T21:18:46;99474.45;;;7.18;73.73
40794;BME280;26502;51.886;15.604;2023-03-25T21:23:53;99463.33;;;7.18;73.83
40794;BME280;26502;51.886;15.604;2023-03-25T21:29:00;99462.18;;;7.15;73.57
40794;BME280;26502;51.886;15.604;2023-03-25T21:34:06;99459.45;;;7.13;73.58
40794;BME280;26502;51.886;15.604;2023-03-25T21:39:12;99456.61;;;7.13;73.46
40794;BME280;26502;51.886;15.604;2023-03-25T21:44:18;99453.39;;;7.14;73.49
40794;BME280;26502;51.886;15.604;2023-03-25T21:49:25;99448.36;;;7.12;73.28
40794;BME280;26502;51.886;15.604;2023-03-25T21:54:32;99442.44;;;7.14;73.27
40794;BME280;26502;51.886;15.604;2023-03-25T21:59:38;99442.75;;;7.16;73.15
40794;BME280;26502;51.886;15.604;2023-03-25T22:04:44;99442.71;;;7.16;73.07
40794;BME280;26502;51.886;15.604;2023-03-25T22:09:51;99446.90;;;7.23;73.07
40794;BME280;26502;51.886;15.604;2023-03-25T22:14:57;99446.46;;;7.29;73.01
40794;BME280;26502;51.886;15.604;2023-03-25T22:20:04;99440.36;;;7.36;73.07
40794;BME280;26502;51.886;15.604;2023-03-25T22:25:11;99436.85;;;7.45;72.93
40794;BME280;26502;51.886;15.604;2023-03-25T22:30:17;99433.14;;;7.49;72.87
40794;BME280;26502;51.886;15.604;2023-03-25T22:35:24;99440.28;;;7.48;72.86
40794;BME280;26502;51.886;15.604;2023-03-25T22:40:32;99443.11;;;7.47;72.91
40794;BME280;26502;51.886;15.604;2023-03-25T22:45:38;99433.74;;;7.52;72.84
40794;BME280;26502;51.886;15.604;2023-03-25T22:50:45;99426.38;;;7.60;72.83
40794;BME280;26502;51.886;15.604;2023-03-25T22:55:52;99423.83;;;7.57;72.80
40794;BME280;26502;51.886;15.604;2023-03-25T23:01:02;99420.70;;;7.56;72.73
40794;BME280;26502;51.886;15.604;2023-03-25T23:06:10;99423.20;;;7.55;72.75
40794;BME280;26502;51.886;15.604;2023-03-25T23:11:18;99422.59;;;7.57;72.66
40794;BME280;26502;51.886;15.604;2023-03-25T23:16:26;99423.42;;;7.59;72.58
40794;BME280;26502;51.886;15.604;2023-03-25T23:21:34;99422.08;;;7.61;72.52
40794;BME280;26502;51.886;15.604;2023-03-25T23:26:41;99414.23;;;7.63;72.54
40794;BME280;26502;51.886;15.604;2023-03-25T23:31:50;99412.43;;;7.63;72.55
40794;BME280;26502;51.886;15.604;2023-03-25T23:36:57;99408.50;;;7.65;72.55
40794;BME280;26502;51.886;15.604;2023-03-25T23:42:03;99404.91;;;7.66;72.44
40794;BME280;26502;51.886;15.604;2023-03-25T23:47:09;99406.80;;;7.68;72.32
40794;BME280;26502;51.886;15.604;2023-03-25T23:52:15;99412.19;;;7.70;72.13
40794;BME280;26502;51.886;15.604;2023-03-25T23:57:22;99412.83;;;7.76;72.09
